Time;durP1;ratioP1;P1;durP2;ratioP2;P2;SDS_P1;SDS_P2;PMS_P1;PMS_P2;Temp;Humidity;BMP_temperature;BMP_pressure;BME280_temperature;BME280_humidity;BME280_pressure;Samples;Min_cycle;Max_cycle;Signal;HPM_P1;HPM_P2
2021/04/16 00:02:03;;;;;;;;;;;2.80;99.90;;;;;;5067859;28;19984;-88
2021/04/16 00:04:45;;;;;;;;;;;2.60;99.90;;;;;;5061827;28;20341;-88
2021/04/16 00:07:48;;;;;;;;;;;2.60;99.90;;;;;;5146223;27;19976;-86
2021/04/16 00:10:41;;;;;;;;;;;2.70;99.90;;;;;;5102276;27;20037;-86
2021/04/16 00:13:22;;;;;;;;;;;2.40;99.90;;;;;;5098947;27;20012;-89
2021/04/16 00:16:06;;;;;;;;;;;2.50;99.90;;;;;;5156516;27;20015;-87
2021/04/16 00:18:46;;;;;;;;;;;2.50;99.90;;;;;;5119870;27;19930;-89
2021/04/16 00:21:38;;;;;;;;;;;2.50;99.90;;;;;;5118501;27;19912;-89
2021/04/16 00:24:23;;;;;;;;;;;2.50;99.90;;;;;;5090731;27;19917;-90
2021/04/16 00:27:03;;;;;;;;;;;2.50;99.90;;;;;;5100591;27;19988;-89
2021/04/16 00:29:42;;;;;;;;;;;2.50;99.90;;;;;;5123542;27;19979;-88
2021/04/16 00:32:27;;;;;;;;;;;2.40;99.90;;;;;;5120186;27;19980;-87
2021/04/16 00:35:08;;;;;;;;;;;2.40;99.90;;;;;;5125153;27;19922;-91
2021/04/16 00:37:49;;;;;;;;;;;2.30;99.90;;;;;;5073958;28;19969;-93
2021/04/16 00:40:31;;;;;;;;;;;2.30;99.90;;;;;;5092786;28;19912;-88
2021/04/16 00:43:11;;;;;;;;;;;2.20;99.90;;;;;;5105480;27;19939;-87
2021/04/16 00:45:54;;;;;;;;;;;2.10;99.90;;;;;;5165258;27;19979;-96
2021/04/16 00:48:36;;;;;;;;;;;2.10;99.90;;;;;;5121271;27;20470;-90
2021/04/16 00:51:22;;;;;;;;;;;2.20;99.90;;;;;;5115639;27;20023;-90
2021/04/16 00:54:31;;;;;;;;;;;0.30;99.90;;;;;;5101072;28;19992;-90
2021/04/16 00:57:29;;;;;;;;;;;2.10;99.90;;;;;;5121441;27;20019;-90
2021/04/16 01:00:10;;;;;;;;;;;2.10;99.90;;;;;;5094241;27;20023;-92
2021/04/16 01:02:48;;;;;;;;;;;2.00;99.90;;;;;;5117926;27;19988;-90
2021/04/16 01:05:28;;;;;;;;;;;2.10;99.90;;;;;;5117203;27;19971;-92
2021/04/16 01:08:10;;;;;;;;;;;2.00;99.90;;;;;;5105907;27;19980;-88
2021/04/16 01:10:52;;;;;;;;;;;2.00;99.90;;;;;;5112568;27;19963;-91
2021/04/16 01:13:37;;;;;;;;;;;2.00;99.90;;;;;;5129864;27;19968;-93
2021/04/16 01:16:29;;;;;;;;;;;2.00;99.90;;;;;;5112656;27;19983;-87
2021/04/16 01:19:37;;;;;;;;;;;1.90;99.90;;;;;;5087902;28;19980;-92
2021/04/16 01:22:07;;;;;;;;;;;1.90;99.90;;;;;;5059315;28;19936;-94
2021/04/16 01:24:48;;;;;;;;;;;1.90;99.90;;;;;;5143604;27;19976;-90
2021/04/16 01:27:28;;;;;;;;;;;1.70;99.90;;;;;;5121177;27;19918;-88
2021/04/16 01:30:12;;;;;;;;;;;1.80;99.90;;;;;;5098917;28;19919;-87
2021/04/16 01:32:52;;;;;;;;;;;1.70;99.90;;;;;;5121030;27;20024;-88
2021/04/16 01:35:36;;;;;;;;;;;1.70;99.90;;;;;;5102915;28;19916;-86
2021/04/16 01:38:14;;;;;;;;;;;1.70;99.90;;;;;;5110526;27;19913;-88
2021/04/16 01:40:58;;;;;;;;;;;1.60;99.90;;;;;;5118996;27;19916;-88
2021/04/16 01:43:38;;;;;;;;;;;1.60;99.90;;;;;;5104528;27;19912;-88
2021/04/16 01:46:22;;;;;;;;;;;1.60;99.90;;;;;;5079104;28;19913;-88
2021/04/16 01:49:04;;;;;;;;;;;1.60;99.90;;;;;;5120480;27;19987;-88
2021/04/16 01:51:44;;;;;;;;;;;1.70;99.90;;;;;;5140506;27;19918;-88
2021/04/16 01:54:29;;;;;;;;;;;1.70;99.90;;;;;;5118658;27;19922;-89
2021/04/16 01:57:10;;;;;;;;;;;1.60;99.90;;;;;;5104134;28;19976;-87
2021/04/16 01:59:50;;;;;;;;;;;1.70;99.90;;;;;;5122290;27;19922;-89
2021/04/16 02:02:39;;;;;;;;;;;1.70;99.90;;;;;;5125637;27;19971;-87
2021/04/16 02:05:35;;;;;;;;;;;1.70;99.90;;;;;;5157094;27;20014;-89
2021/04/16 02:08:20;;;;;;;;;;;1.90;99.90;;;;;;5096638;27;20376;-87
2021/04/16 02:11:43;;;;;;;;;;;1.90;99.90;;;;;;5119547;27;19912;-85
2021/04/16 02:14:24;;;;;;;;;;;1.80;99.90;;;;;;5113364;27;19919;-88
2021/04/16 02:17:22;;;;;;;;;;;1.90;99.90;;;;;;5141645;27;19912;-87
2021/04/16 02:20:06;;;;;;;;;;;1.80;99.90;;;;;;5100423;27;20011;-86
2021/04/16 02:22:55;;;;;;;;;;;1.70;99.90;;;;;;5141176;27;19922;-86
2021/04/16 02:25:28;;;;;;;;;;;1.80;99.90;;;;;;5091472;28;20447;-86
2021/04/16 02:28:11;;;;;;;;;;;1.70;99.90;;;;;;5122820;27;20011;-85
2021/04/16 02:30:51;;;;;;;;;;;1.70;99.90;;;;;;5123262;27;19922;-86
2021/04/16 02:33:34;;;;;;;;;;;1.70;99.90;;;;;;5101060;28;19917;-86
2021/04/16 02:36:24;;;;;;;;;;;;;;;;;;5111165;27;19943;-88
2021/04/16 02:39:06;;;;;;;;;;;1.70;99.90;;;;;;5098262;28;20597;-86
2021/04/16 02:41:49;;;;;;;;;;;1.60;99.90;;;;;;5107777;27;20346;-89
2021/04/16 02:44:37;;;;;;;;;;;1.60;99.90;;;;;;5110423;27;19917;-87
2021/04/16 02:47:37;;;;;;;;;;;1.50;99.90;;;;;;5122422;27;20376;-89
2021/04/16 02:51:30;;;;;;;;;;;1.50;99.90;;;;;;5099520;28;20107;-87
2021/04/16 02:54:17;;;;;;;;;;;1.40;99.90;;;;;;5076960;28;19940;-86
2021/04/16 02:56:47;;;;;;;;;;;1.40;99.90;;;;;;5103156;28;19924;-86
2021/04/16 02:59:30;;;;;;;;;;;1.50;99.90;;;;;;5136929;27;19916;-87
2021/04/16 03:02:12;;;;;;;;;;;1.70;99.90;;;;;;5073605;28;19920;-87
2021/04/16 03:05:09;;;;;;;;;;;1.40;99.90;;;;;;5076608;28;19923;-86
2021/04/16 03:07:37;;;;;;;;;;;1.40;99.90;;;;;;5080156;28;19929;-87
2021/04/16 03:10:05;;;;;;;;;;;1.30;99.90;;;;;;5074027;28;19925;-87
2021/04/16 03:12:32;;;;;;;;;;;1.30;99.90;;;;;;5098896;28;19935;-86
2021/04/16 03:15:00;;;;;;;;;;;1.30;99.90;;;;;;5073472;28;20219;-86
2021/04/16 03:17:27;;;;;;;;;;;1.40;99.90;;;;;;5065110;28;19929;-87
2021/04/16 03:19:55;;;;;;;;;;;1.20;99.90;;;;;;5056148;28;19936;-86
2021/04/16 03:22:22;;;;;;;;;;;1.50;99.90;;;;;;5049287;28;20409;-87
2021/04/16 03:24:49;;;;;;;;;;;1.20;99.90;;;;;;5064612;28;19925;-87
2021/04/16 03:27:16;;;;;;;;;;;1.10;99.90;;;;;;5073395;28;19925;-86
2021/04/16 03:29:43;;;;;;;;;;;1.20;99.90;;;;;;5072721;28;20448;-87
2021/04/16 03:32:11;;;;;;;;;;;1.10;99.90;;;;;;5043425;28;20388;-87
2021/04/16 03:34:38;;;;;;;;;;;1.10;99.90;;;;;;5075431;28;19925;-86
2021/04/16 03:37:07;;;;;;;;;;;1.00;99.90;;;;;;5055410;28;19940;-88
2021/04/16 03:39:37;;;;;;;;;;;1.10;99.90;;;;;;5077446;28;20189;-86
2021/04/16 03:42:05;;;;;;;;;;;0.90;99.90;;;;;;5067140;28;19925;-88
2021/04/16 03:44:33;;;;;;;;;;;0.90;99.90;;;;;;5044266;28;19931;-87
2021/04/16 03:47:00;;;;;;;;;;;0.90;99.90;;;;;;5092306;28;19929;-86
2021/04/16 03:49:29;;;;;;;;;;;1.00;99.90;;;;;;5073991;28;19925;-86
2021/04/16 03:51:58;;;;;;;;;;;0.90;99.90;;;;;;5055205;28;19954;-86
2021/04/16 03:54:26;;;;;;;;;;;0.90;99.90;;;;;;5075179;28;20018;-86
2021/04/16 03:56:53;;;;;;;;;;;0.90;99.90;;;;;;5092061;28;19930;-86
2021/04/16 03:59:22;;;;;;;;;;;1.10;99.90;;;;;;5040895;28;19937;-87
2021/04/16 04:01:50;;;;;;;;;;;0.90;99.90;;;;;;5072681;28;19940;-86
2021/04/16 04:04:19;;;;;;;;;;;0.90;99.90;;;;;;5062794;28;19925;-89
2021/04/16 04:06:47;;;;;;;;;;;0.90;99.90;;;;;;5097930;28;19928;-86
2021/04/16 04:09:14;;;;;;;;;;;0.90;99.90;;;;;;5080068;28;20311;-87
2021/04/16 04:11:42;;;;;;;;;;;;;;;;;;5080704;28;19924;-86
2021/04/16 04:14:09;;;;;;;;;;;0.90;99.90;;;;;;5096239;28;19932;-86
2021/04/16 04:16:54;;;;;;;;;;;0.80;99.90;;;;;;5080841;28;19925;-85
2021/04/16 04:19:22;;;;;;;;;;;0.70;99.90;;;;;;5079166;28;19951;-86
2021/04/16 04:21:50;;;;;;;;;;;0.70;99.90;;;;;;5069811;28;19924;-87
2021/04/16 04:24:18;;;;;;;;;;;0.70;99.90;;;;;;5086999;28;19924;-86
2021/04/16 04:26:46;;;;;;;;;;;0.60;99.90;;;;;;5049331;28;19929;-86
2021/04/16 04:29:16;;;;;;;;;;;0.80;99.90;;;;;;5082637;28;19924;-87
2021/04/16 04:31:47;;;;;;;;;;;0.60;99.90;;;;;;5037944;28;19926;-85
2021/04/16 04:34:18;;;;;;;;;;;0.60;99.90;;;;;;5069028;28;19929;-86
2021/04/16 04:36:46;;;;;;;;;;;0.60;99.90;;;;;;5073365;28;19924;-88
2021/04/16 04:39:14;;;;;;;;;;;0.60;99.90;;;;;;5077718;28;19935;-87
2021/04/16 04:41:41;;;;;;;;;;;0.60;99.90;;;;;;5063214;28;20627;-85
2021/04/16 04:44:09;;;;;;;;;;;0.60;99.90;;;;;;5065820;28;19925;-86
2021/04/16 04:46:36;;;;;;;;;;;0.60;99.90;;;;;;5079274;28;19928;-87
2021/04/16 04:49:05;;;;;;;;;;;0.60;99.90;;;;;;5067806;28;19925;-86
2021/04/16 04:51:32;;;;;;;;;;;0.70;99.90;;;;;;5069417;28;19929;-87
2021/04/16 04:54:00;;;;;;;;;;;0.60;99.90;;;;;;5060146;28;19924;-85
2021/04/16 04:56:41;;;;;;;;;;;0.60;99.90;;;;;;5069201;28;19925;-85
2021/04/16 04:59:12;;;;;;;;;;;0.60;99.90;;;;;;5051863;28;19936;-86
2021/04/16 05:01:40;;;;;;;;;;;0.60;99.90;;;;;;5085865;28;19931;-86
2021/04/16 05:04:07;;;;;;;;;;;0.60;99.90;;;;;;5068026;28;19936;-87
2021/04/16 05:06:34;;;;;;;;;;;0.60;99.90;;;;;;5072283;28;19931;-84
2021/04/16 05:09:02;;;;;;;;;;;0.40;99.90;;;;;;5093995;28;19916;-86
2021/04/16 05:11:29;;;;;;;;;;;0.60;99.90;;;;;;5076677;28;19925;-86
2021/04/16 05:13:57;;;;;;;;;;;0.50;99.90;;;;;;5076118;28;19936;-85
2021/04/16 05:16:24;;;;;;;;;;;0.60;99.90;;;;;;5083957;28;19921;-88
2021/04/16 05:18:53;;;;;;;;;;;0.60;99.90;;;;;;5053705;28;19932;-87
2021/04/16 05:21:21;;;;;;;;;;;0.50;99.90;;;;;;5065918;28;19928;-85
2021/04/16 05:23:48;;;;;;;;;;;0.50;99.90;;;;;;5065724;28;19935;-86
2021/04/16 05:26:16;;;;;;;;;;;0.60;99.90;;;;;;5074670;28;19929;-86
2021/04/16 05:28:44;;;;;;;;;;;0.60;99.90;;;;;;5071111;28;19931;-86
2021/04/16 05:31:11;;;;;;;;;;;0.70;99.90;;;;;;5067270;28;20106;-86
2021/04/16 05:33:38;;;;;;;;;;;0.70;99.90;;;;;;5065045;28;19925;-85
2021/04/16 05:36:06;;;;;;;;;;;0.70;99.90;;;;;;5050282;28;19926;-86
2021/04/16 05:38:35;;;;;;;;;;;0.70;99.90;;;;;;5073244;28;19935;-87
2021/04/16 05:41:02;;;;;;;;;;;0.70;99.90;;;;;;5062961;28;19929;-85
2021/04/16 05:43:30;;;;;;;;;;;0.70;99.90;;;;;;5045063;28;19928;-87
2021/04/16 05:46:01;;;;;;;;;;;0.80;99.90;;;;;;5069350;28;19924;-87
2021/04/16 05:48:28;;;;;;;;;;;0.90;99.90;;;;;;5083968;28;19934;-85
2021/04/16 05:50:57;;;;;;;;;;;1.00;99.90;;;;;;5089391;28;19924;-85
2021/04/16 05:53:24;;;;;;;;;;;1.00;99.90;;;;;;5059919;28;19928;-86
2021/04/16 05:55:52;;;;;;;;;;;0.90;99.90;;;;;;5065411;28;19932;-86
2021/04/16 05:58:19;;;;;;;;;;;1.00;99.90;;;;;;5056377;28;19925;-89
2021/04/16 06:00:45;;;;;;;;;;;1.10;99.90;;;;;;5051953;28;19929;-85
2021/04/16 06:03:12;;;;;;;;;;;1.20;99.90;;;;;;5062720;28;19931;-85
2021/04/16 06:05:39;;;;;;;;;;;1.10;99.90;;;;;;5060734;28;19991;-85
2021/04/16 06:08:06;;;;;;;;;;;1.20;99.90;;;;;;5044975;28;19940;-85
2021/04/16 06:10:33;;;;;;;;;;;1.20;99.90;;;;;;5056610;28;19936;-86
2021/04/16 06:13:00;;;;;;;;;;;1.30;99.90;;;;;;5066861;28;20007;-86
2021/04/16 06:15:28;;;;;;;;;;;1.40;99.90;;;;;;5066925;28;19924;-86
2021/04/16 06:17:56;;;;;;;;;;;1.40;99.90;;;;;;5055577;28;20312;-85
2021/04/16 06:20:25;;;;;;;;;;;1.50;99.90;;;;;;5050270;28;20387;-84
2021/04/16 06:22:52;;;;;;;;;;;1.50;99.90;;;;;;5056905;28;19929;-85
2021/04/16 06:25:21;;;;;;;;;;;1.60;99.90;;;;;;5046156;28;20759;-85
2021/04/16 06:27:48;;;;;;;;;;;1.80;99.90;;;;;;5043359;28;19932;-85
2021/04/16 06:30:16;;;;;;;;;;;1.70;99.90;;;;;;5045904;28;20386;-85
2021/04/16 06:32:43;;;;;;;;;;;1.80;99.90;;;;;;5047517;28;19925;-84
2021/04/16 06:35:12;;;;;;;;;;;1.90;99.90;;;;;;5047346;28;19928;-84
2021/04/16 06:37:39;;;;;;;;;;;2.00;99.90;;;;;;5036908;28;19929;-87
2021/04/16 06:40:07;;;;;;;;;;;2.10;99.90;;;;;;5059142;28;19928;-85
2021/04/16 06:42:34;;;;;;;;;;;2.20;99.90;;;;;;5066895;28;19932;-84
2021/04/16 06:45:04;;;;;;;;;;;2.20;99.90;;;;;;5065347;28;20436;-86
2021/04/16 06:47:43;;;;;;;;;;;2.20;99.90;;;;;;5067470;28;20383;-84
2021/04/16 06:50:13;;;;;;;;;;;2.30;99.90;;;;;;5067126;28;19928;-87
2021/04/16 06:52:42;;;;;;;;;;;2.40;99.90;;;;;;5060694;28;20085;-88
2021/04/16 06:55:12;;;;;;;;;;;2.50;99.90;;;;;;5049709;28;19936;-88
2021/04/16 06:57:40;;;;;;;;;;;2.70;99.90;;;;;;5047272;28;20486;-87
2021/04/16 07:00:42;;;;;;;;;;;2.70;99.90;;;;;;5017090;28;19956;-91
2021/04/16 07:03:17;;;;;;;;;;;3.00;99.90;;;;;;4953962;28;19930;-88
2021/04/16 07:05:52;;;;;;;;;;;3.10;99.90;;;;;;5025128;28;19925;-90
2021/04/16 07:08:23;;;;;;;;;;;3.20;99.90;;;;;;5048598;28;20004;-88
2021/04/16 07:10:52;;;;;;;;;;;3.30;99.90;;;;;;5031466;28;19929;-89
2021/04/16 07:13:45;;;;;;;;;;;3.30;99.90;;;;;;5047479;28;19925;-85
2021/04/16 07:16:12;;;;;;;;;;;3.60;99.90;;;;;;5048785;28;19936;-91
2021/04/16 07:18:42;;;;;;;;;;;3.70;99.90;;;;;;5036486;28;19928;-89
2021/04/16 07:21:11;;;;;;;;;;;1.90;99.90;;;;;;5032116;28;19925;-88
2021/04/16 07:23:43;;;;;;;;;;;3.90;99.90;;;;;;5047979;28;19932;-90
2021/04/16 07:26:33;;;;;;;;;;;4.30;99.90;;;;;;5052540;28;19929;-86
2021/04/16 07:29:01;;;;;;;;;;;4.20;99.90;;;;;;5056346;28;19924;-87
2021/04/16 07:31:42;;;;;;;;;;;4.10;99.90;;;;;;5044393;28;19929;-85
2021/04/16 07:34:27;;;;;;;;;;;4.40;99.90;;;;;;5058207;28;19948;-86
2021/04/16 07:36:55;;;;;;;;;;;4.60;99.90;;;;;;5059848;28;19925;-86
2021/04/16 07:39:22;;;;;;;;;;;4.70;99.90;;;;;;5071625;28;19939;-86
2021/04/16 07:42:14;;;;;;;;;;;4.70;99.90;;;;;;5069687;28;20007;-87
2021/04/16 07:44:55;;;;;;;;;;;5.00;99.90;;;;;;5069750;28;19932;-88
2021/04/16 07:47:25;;;;;;;;;;;5.00;99.90;;;;;;5039954;28;19929;-86
2021/04/16 07:50:08;;;;;;;;;;;5.10;99.90;;;;;;5058234;28;19936;-87
2021/04/16 07:52:40;;;;;;;;;;;5.10;99.90;;;;;;5039894;28;19935;-91
2021/04/16 07:55:07;;;;;;;;;;;;;;;;;;5054077;28;19956;-86
2021/04/16 07:57:35;;;;;;;;;;;5.40;99.90;;;;;;5054279;28;19936;-85
2021/04/16 08:00:07;;;;;;;;;;;5.50;99.90;;;;;;5058213;28;19951;-85
2021/04/16 08:02:46;;;;;;;;;;;5.60;99.90;;;;;;5048906;28;20273;-88
2021/04/16 08:05:13;;;;;;;;;;;5.70;99.90;;;;;;5050056;28;19925;-86
2021/04/16 08:07:41;;;;;;;;;;;5.80;99.90;;;;;;5052963;28;19925;-88
2021/04/16 08:10:14;;;;;;;;;;;5.90;99.90;;;;;;5036796;28;19925;-86
2021/04/16 08:12:41;;;;;;;;;;;6.00;99.90;;;;;;5055093;28;19932;-89
2021/04/16 08:15:13;;;;;;;;;;;6.00;99.90;;;;;;5058948;28;19932;-89
2021/04/16 08:17:41;;;;;;;;;;;6.30;99.90;;;;;;5045559;28;19928;-87
2021/04/16 08:20:17;;;;;;;;;;;6.40;99.90;;;;;;5041570;28;19932;-87
2021/04/16 08:22:53;;;;;;;;;;;6.50;99.90;;;;;;5052732;28;19929;-87
2021/04/16 08:25:26;;;;;;;;;;;6.60;99.90;;;;;;5056507;28;19929;-87
2021/04/16 08:27:56;;;;;;;;;;;6.70;99.90;;;;;;5051422;28;19928;-88
2021/04/16 08:30:29;;;;;;;;;;;6.80;99.90;;;;;;5052517;28;19932;-88
2021/04/16 08:32:56;;;;;;;;;;;7.10;99.90;;;;;;5039945;28;19925;-88
2021/04/16 08:35:33;;;;;;;;;;;7.00;99.90;;;;;;5050437;28;19936;-88
2021/04/16 08:38:03;;;;;;;;;;;7.20;99.90;;;;;;5052345;28;19936;-87
2021/04/16 08:40:32;;;;;;;;;;;7.40;99.90;;;;;;5053301;28;19936;-89
2021/04/16 08:43:00;;;;;;;;;;;7.50;99.90;;;;;;5049561;28;20380;-89
2021/04/16 08:45:29;;;;;;;;;;;7.60;99.90;;;;;;5017103;28;19939;-88
2021/04/16 08:47:59;;;;;;;;;;;7.70;99.90;;;;;;5027350;28;19948;-89
2021/04/16 08:50:28;;;;;;;;;;;7.90;99.90;;;;;;5050257;28;20519;-89
2021/04/16 08:52:57;;;;;;;;;;;8.00;99.90;;;;;;5047486;28;20368;-88
2021/04/16 08:55:24;;;;;;;;;;;8.10;99.90;;;;;;5044635;28;19929;-88
2021/04/16 08:57:53;;;;;;;;;;;8.30;99.90;;;;;;5029717;28;20460;-89
2021/04/16 09:00:29;;;;;;;;;;;8.30;99.90;;;;;;5046051;28;19925;-88
2021/04/16 09:02:58;;;;;;;;;;;8.40;99.90;;;;;;5034827;28;19943;-87
2021/04/16 09:05:36;;;;;;;;;;;8.30;99.90;;;;;;5041887;28;19925;-89
2021/04/16 09:08:08;;;;;;;;;;;8.00;99.90;;;;;;5032196;28;19929;-89
2021/04/16 09:10:50;;;;;;;;;;;8.50;99.90;;;;;;5048714;28;19929;-91
2021/04/16 09:13:32;;;;;;;;;;;10.00;99.90;;;;;;5039567;28;19932;-88
2021/04/16 09:16:20;;;;;;;;;;;8.70;99.90;;;;;;5040970;28;19924;-89
2021/04/16 09:18:49;;;;;;;;;;;8.70;99.90;;;;;;5040622;28;19933;-88
2021/04/16 09:21:17;;;;;;;;;;;8.70;99.90;;;;;;5045559;28;19936;-91
2021/04/16 09:23:46;;;;;;;;;;;8.80;99.90;;;;;;5042536;28;20459;-89
2021/04/16 09:26:33;;;;;;;;;;;8.80;99.90;;;;;;5032043;28;19935;-90
2021/04/16 09:29:01;;;;;;;;;;;8.80;99.90;;;;;;5030215;28;19944;-89
2021/04/16 09:31:43;;;;;;;;;;;8.60;99.90;;;;;;5029474;28;19936;-89
2021/04/16 09:34:22;;;;;;;;;;;9.00;99.90;;;;;;5042072;28;19933;-89
2021/04/16 09:37:13;;;;;;;;;;;9.10;99.90;;;;;;5015861;28;19936;-92
2021/04/16 09:39:41;;;;;;;;;;;9.20;99.90;;;;;;5037828;28;19933;-87
2021/04/16 09:42:27;;;;;;;;;;;9.30;99.90;;;;;;5038003;28;20312;-90
2021/04/16 09:44:56;;;;;;;;;;;9.40;99.90;;;;;;5055102;28;19925;-90
2021/04/16 09:47:42;;;;;;;;;;;9.50;99.90;;;;;;5030830;28;19925;-89
2021/04/16 09:50:39;;;;;;;;;;;9.70;99.90;;;;;;5033617;28;19929;-89
2021/04/16 09:53:29;;;;;;;;;;;9.70;99.90;;;;;;5028641;28;19925;-90
2021/04/16 09:56:00;;;;;;;;;;;9.80;99.90;;;;;;5038813;28;19932;-89
2021/04/16 09:58:31;;;;;;;;;;;9.80;99.90;;;;;;5032324;23;19929;-91
2021/04/16 10:01:08;;;;;;;;;;;9.70;99.90;;;;;;5010329;28;20282;-93
2021/04/16 10:03:41;;;;;;;;;;;9.70;99.90;;;;;;5010373;28;19959;-91
2021/04/16 10:06:15;;;;;;;;;;;9.70;99.90;;;;;;5012698;28;19960;-90
2021/04/16 10:08:46;;;;;;;;;;;9.70;99.90;;;;;;5002168;28;19929;-89
2021/04/16 10:11:16;;;;;;;;;;;9.90;99.90;;;;;;5045248;28;19932;-89
2021/04/16 10:13:43;;;;;;;;;;;9.60;99.90;;;;;;5014058;28;20118;-88
2021/04/16 10:16:18;;;;;;;;;;;9.60;99.90;;;;;;5032851;28;19925;-88
2021/04/16 10:18:47;;;;;;;;;;;9.60;99.90;;;;;;5015076;28;19932;-89
2021/04/16 10:21:15;;;;;;;;;;;9.60;99.90;;;;;;5030677;28;19936;-89
2021/04/16 10:23:42;;;;;;;;;;;9.60;99.90;;;;;;5029184;28;19933;-88
2021/04/16 12:39:19;;;;;;;;;;;12.90;78.40;;;;;;5145257;27;19967;-87
2021/04/16 12:42:00;;;;;;;;;;;12.80;76.40;;;;;;5080990;28;20020;-90
2021/04/16 12:44:42;;;;;;;;;;;13.00;77.40;;;;;;5092884;27;20391;-88
2021/04/16 12:47:30;;;;;;;;;;;13.10;76.80;;;;;;5108954;27;19920;-87
2021/04/16 12:50:13;;;;;;;;;;;11.10;76.10;;;;;;5111314;27;19919;-90
2021/04/16 12:52:55;;;;;;;;;;;13.20;77.20;;;;;;5080955;28;19923;-86
2021/04/16 12:55:39;;;;;;;;;;;13.30;75.90;;;;;;5082990;27;20298;-89
2021/04/16 12:58:44;;;;;;;;;;;13.80;75.50;;;;;;5078197;28;20006;-84
2021/04/16 13:01:21;;;;;;;;;;;14.00;75.40;;;;;;5065167;28;19940;-88
2021/04/16 13:04:17;;;;;;;;;;;14.20;76.20;;;;;;5081832;27;19928;-88
2021/04/16 13:06:59;;;;;;;;;;;14.50;74.20;;;;;;5120956;27;19934;-87
2021/04/16 13:09:38;;;;;;;;;;;14.20;73.40;;;;;;5123714;27;19926;-87
2021/04/16 13:12:18;;;;;;;;;;;13.80;73.40;;;;;;5085576;27;19928;-90
2021/04/16 13:14:57;;;;;;;;;;;14.00;72.00;;;;;;5074889;27;19917;-88
2021/04/16 13:17:39;;;;;;;;;;;13.80;72.50;;;;;;5177495;27;19911;-87
2021/04/16 13:20:20;;;;;;;;;;;13.90;73.00;;;;;;5079277;28;19923;-88
2021/04/16 13:23:01;;;;;;;;;;;14.00;72.70;;;;;;5097942;27;19913;-88
2021/04/16 13:25:44;;;;;;;;;;;14.30;72.60;;;;;;5101509;27;19927;-87
2021/04/16 13:28:26;;;;;;;;;;;14.50;73.20;;;;;;5068871;27;19921;-88
2021/04/16 13:30:57;;;;;;;;;;;15.00;71.30;;;;;;5052861;28;20277;-89
2021/04/16 13:33:39;;;;;;;;;;;15.00;71.40;;;;;;5106124;27;19919;-86
2021/04/16 13:36:23;;;;;;;;;;;14.80;69.90;;;;;;5085641;27;19925;-87
2021/04/16 13:39:04;;;;;;;;;;;14.40;71.40;;;;;;5097301;27;19922;-88
2021/04/16 13:41:46;;;;;;;;;;;14.00;71.30;;;;;;5064670;28;19913;-88
2021/04/16 13:44:22;;;;;;;;;;;14.10;72.00;;;;;;5061040;27;1624207;-89
2021/04/16 13:47:02;;;;;;;;;;;14.40;71.30;;;;;;5075690;28;19917;-87
2021/04/16 13:49:41;;;;;;;;;;;14.60;70.30;;;;;;5063640;28;19921;-89
2021/04/16 13:52:21;;;;;;;;;;;14.80;71.80;;;;;;5088260;28;19913;-84
2021/04/16 13:55:03;;;;;;;;;;;14.80;72.20;;;;;;5086467;28;19917;-89
2021/04/16 13:57:43;;;;;;;;;;;14.40;69.20;;;;;;5094578;27;20030;-92
2021/04/16 14:00:23;;;;;;;;;;;14.40;69.90;;;;;;5079211;28;19990;-89
2021/04/16 14:03:15;;;;;;;;;;;14.30;71.10;;;;;;5086979;27;19916;-90
2021/04/16 14:05:55;;;;;;;;;;;14.10;69.90;;;;;;5069208;28;19924;-88
2021/04/16 14:08:33;;;;;;;;;;;14.20;72.00;;;;;;5064133;28;19929;-88
2021/04/16 14:11:01;;;;;;;;;;;14.70;70.60;;;;;;5072502;28;20042;-90
2021/04/16 14:13:28;;;;;;;;;;;15.30;68.80;;;;;;5064620;28;19939;-87
2021/04/16 14:16:00;;;;;;;;;;;15.80;68.90;;;;;;5064992;28;19932;-88
2021/04/16 14:18:32;;;;;;;;;;;16.00;68.40;;;;;;5059266;28;19929;-93
2021/04/16 14:21:01;;;;;;;;;;;16.70;67.70;;;;;;5077624;28;19954;-88
2021/04/16 14:23:29;;;;;;;;;;;16.70;69.50;;;;;;5079587;28;19929;-87
2021/04/16 14:26:00;;;;;;;;;;;16.70;68.80;;;;;;5063002;28;19928;-91
2021/04/16 14:28:27;;;;;;;;;;;16.40;69.90;;;;;;5042699;28;19940;-93
2021/04/16 14:30:57;;;;;;;;;;;16.10;69.70;;;;;;5073626;28;19932;-90
2021/04/16 14:33:26;;;;;;;;;;;16.00;68.80;;;;;;5080757;28;19932;-93
2021/04/16 14:35:54;;;;;;;;;;;15.50;70.00;;;;;;5068062;28;19924;-89
2021/04/16 14:38:22;;;;;;;;;;;15.50;70.80;;;;;;5064007;28;19925;-87
2021/04/16 14:40:49;;;;;;;;;;;15.80;70.30;;;;;;5071288;28;19932;-87
2021/04/16 14:43:16;;;;;;;;;;;16.10;69.20;;;;;;5079997;28;19936;-85
2021/04/16 14:45:45;;;;;;;;;;;16.20;69.70;;;;;;5069863;28;19925;-87
2021/04/16 14:48:13;;;;;;;;;;;16.00;68.10;;;;;;5069003;28;19936;-86
2021/04/16 14:50:40;;;;;;;;;;;15.90;69.90;;;;;;5080686;28;20394;-88
2021/04/16 14:53:18;;;;;;;;;;;16.10;69.40;;;;;;5076952;28;20280;-87
2021/04/16 14:55:45;;;;;;;;;;;16.40;69.10;;;;;;5074626;28;20027;-87
2021/04/16 14:58:14;;;;;;;;;;;16.50;68.40;;;;;;5048614;28;19925;-86
2021/04/16 15:00:42;;;;;;;;;;;17.20;68.10;;;;;;5061561;28;19925;-91
2021/04/16 15:03:09;;;;;;;;;;;17.80;67.50;;;;;;5045944;28;20419;-90
2021/04/16 15:05:38;;;;;;;;;;;18.20;67.10;;;;;;5066442;28;19925;-93
2021/04/16 15:08:12;;;;;;;;;;;18.50;67.10;;;;;;5067679;28;19925;-91
2021/04/16 15:10:44;;;;;;;;;;;19.10;63.10;;;;;;5062217;28;20240;-90
2021/04/16 15:13:27;;;;;;;;;;;19.40;61.90;;;;;;5072787;28;19943;-90
2021/04/16 15:15:57;;;;;;;;;;;;;;;;;;5055571;28;19942;-89
2021/04/16 15:18:25;;;;;;;;;;;19.30;63.00;;;;;;5047278;28;19940;-90
2021/04/16 15:20:52;;;;;;;;;;;18.90;61.00;;;;;;5048501;28;19952;-88
2021/04/16 15:23:20;;;;;;;;;;;17.90;63.30;;;;;;5043477;28;19936;-89
2021/04/16 15:25:49;;;;;;;;;;;17.90;64.20;;;;;;5035250;28;19944;-89
2021/04/16 15:28:21;;;;;;;;;;;16.70;65.80;;;;;;5019689;28;19933;-88
2021/04/16 15:30:51;;;;;;;;;;;16.40;66.70;;;;;;5045853;28;19936;-88
2021/04/16 15:33:21;;;;;;;;;;;16.30;66.40;;;;;;5046855;28;19924;-86
2021/04/16 15:47:02;;;;;;;;;;;18.10;65.90;;;;;;5047016;28;19925;-87
2021/04/16 15:49:29;;;;;;;;;;;18.10;64.30;;;;;;5037425;28;20335;-87
2021/04/16 15:51:57;;;;;;;;;;;18.70;63.00;;;;;;5041105;28;19932;-87
2021/04/16 15:54:24;;;;;;;;;;;19.00;61.10;;;;;;5042648;28;20384;-86
2021/04/16 15:56:51;;;;;;;;;;;19.90;60.00;;;;;;5046035;28;19932;-85
2021/04/16 15:59:21;;;;;;;;;;;19.80;59.70;;;;;;5054351;28;19933;-86
2021/04/16 16:01:50;;;;;;;;;;;20.10;56.10;;;;;;5049924;28;19939;-86
2021/04/16 16:04:18;;;;;;;;;;;20.50;56.90;;;;;;5058472;28;19929;-86
2021/04/16 16:06:46;;;;;;;;;;;20.60;59.20;;;;;;5039679;28;19929;-87
2021/04/16 16:09:13;;;;;;;;;;;20.80;58.50;;;;;;5038296;28;19944;-88
2021/04/16 16:11:42;;;;;;;;;;;20.60;56.40;;;;;;5042960;28;19924;-86
2021/04/16 16:14:12;;;;;;;;;;;20.60;57.80;;;;;;5034195;28;19929;-87
2021/04/16 16:16:42;;;;;;;;;;;20.50;57.30;;;;;;5041747;28;19925;-87
2021/04/16 16:19:10;;;;;;;;;;;20.90;55.50;;;;;;5045328;28;19956;-88
2021/04/16 16:21:39;;;;;;;;;;;20.90;55.90;;;;;;5030008;28;19929;-88
2021/04/16 16:24:29;;;;;;;;;;;20.90;55.70;;;;;;5037179;28;19932;-88
2021/04/16 16:26:56;;;;;;;;;;;21.00;55.20;;;;;;5039845;28;19925;-88
2021/04/16 16:29:25;;;;;;;;;;;20.90;56.40;;;;;;5028657;28;19932;-88
2021/04/16 16:31:53;;;;;;;;;;;21.00;56.00;;;;;;5016383;28;19979;-88
2021/04/16 16:34:21;;;;;;;;;;;21.00;52.80;;;;;;5044641;28;19928;-88
2021/04/16 16:36:48;;;;;;;;;;;20.50;55.80;;;;;;5040576;28;19936;-88
2021/04/16 16:39:35;;;;;;;;;;;20.40;55.90;;;;;;5042252;28;19931;-86
2021/04/16 16:42:03;;;;;;;;;;;20.40;54.50;;;;;;5044026;28;19944;-86
2021/04/16 16:44:34;;;;;;;;;;;20.90;54.50;;;;;;5044868;28;19935;-87
2021/04/16 16:47:03;;;;;;;;;;;20.60;53.50;;;;;;5044595;28;19924;-91
2021/04/16 16:49:30;;;;;;;;;;;20.60;52.00;;;;;;5042886;28;19933;-87
2021/04/16 16:52:09;;;;;;;;;;;20.60;54.40;;;;;;4752316;27;9999701;-86
2021/04/16 16:54:51;;;;;;;;;;;20.60;53.60;;;;;;5017761;28;20016;-89
2021/04/16 16:57:31;;;;;;;;;;;20.70;54.40;;;;;;5107050;27;19938;-88
2021/04/16 17:00:11;;;;;;;;;;;20.80;55.00;;;;;;5078125;27;19928;-86
2021/04/16 17:02:51;;;;;;;;;;;20.80;51.60;;;;;;5101088;27;19929;-91
2021/04/16 17:05:30;;;;;;;;;;;20.90;53.00;;;;;;5106358;27;19916;-88
2021/04/16 17:08:09;;;;;;;;;;;20.90;52.20;;;;;;5098160;27;19941;-89
2021/04/16 17:10:49;;;;;;;;;;;20.80;53.10;;;;;;5094706;27;19925;-87
2021/04/16 17:13:27;;;;;;;;;;;20.50;51.40;;;;;;5092450;27;19924;-89
2021/04/16 17:15:58;;;;;;;;;;;20.50;52.30;;;;;;5063954;28;19928;-87
2021/04/16 17:18:40;;;;;;;;;;;20.50;52.00;;;;;;5083342;27;19942;-89
2021/04/16 17:21:22;;;;;;;;;;;20.40;52.50;;;;;;5057668;28;20383;-88
2021/04/16 17:24:02;;;;;;;;;;;20.60;52.60;;;;;;5065331;27;19917;-88
2021/04/16 17:26:45;;;;;;;;;;;20.50;51.20;;;;;;5072777;28;19966;-88
2021/04/16 17:29:17;;;;;;;;;;;20.30;51.20;;;;;;5025908;28;20042;-86
2021/04/16 17:33:46;;;;;;;;;;;19.90;52.20;;;;;;5098792;27;19916;-87
2021/04/16 17:36:24;;;;;;;;;;;19.90;52.70;;;;;;5087597;27;20314;-86
2021/04/16 17:39:04;;;;;;;;;;;19.90;52.40;;;;;;5012507;28;20454;-87